createdAt,value
2022-08-03T00:00:32.577Z,14.45
2022-08-03T00:03:01.438Z,14.42
2022-08-03T00:05:28.759Z,14.38
2022-08-03T00:07:55.623Z,14.27
2022-08-03T00:10:25.771Z,14.29
2022-08-03T00:12:54.075Z,14.36
2022-08-03T00:15:21.088Z,14.31
2022-08-03T00:17:52.447Z,14.33
2022-08-03T00:20:20.603Z,14.27
2022-08-03T00:22:48.167Z,14.25
2022-08-03T00:25:15.639Z,14.30
2022-08-03T00:27:43.967Z,14.29
2022-08-03T00:30:12.071Z,14.14
2022-08-03T00:32:45.144Z,14.20
2022-08-03T00:35:25.977Z,14.20
2022-08-03T00:38:00.375Z,14.22
2022-08-03T00:40:27.811Z,14.25
2022-08-03T00:43:00.765Z,14.23
2022-08-03T00:45:32.454Z,14.25
2022-08-03T00:48:00.140Z,14.16
2022-08-03T00:50:31.099Z,14.18
2022-08-03T00:52:59.574Z,14.29
2022-08-03T00:55:26.839Z,14.24
2022-08-03T00:57:54.435Z,14.36
2022-08-03T01:00:24.379Z,14.49
2022-08-03T01:02:52.771Z,14.30
2022-08-03T01:05:22.842Z,14.30
2022-08-03T01:08:02.064Z,14.29
2022-08-03T01:10:37.156Z,14.23
2022-08-03T01:14:01.661Z,14.24
2022-08-03T01:16:12.542Z,14.23
2022-08-03T01:18:52.648Z,14.16
2022-08-03T01:21:26.930Z,14.14
2022-08-03T01:24:04.446Z,14.16
2022-08-03T01:26:52.875Z,14.15
2022-08-03T01:29:56.482Z,14.16
2022-08-03T01:32:59.547Z,14.04
2022-08-03T01:35:26.913Z,14.01
2022-08-03T01:38:02.543Z,14.03
2022-08-03T01:40:31.409Z,14.02
2022-08-03T01:43:03.939Z,14.01
2022-08-03T01:45:34.475Z,13.98
2022-08-03T01:48:06.402Z,13.96
2022-08-03T01:50:36.970Z,13.96
2022-08-03T01:53:05.296Z,13.99
2022-08-03T01:55:36.872Z,13.98
2022-08-03T01:58:06.942Z,14.02
2022-08-03T02:00:44.680Z,14.05
2022-08-03T02:03:16.027Z,14.02
2022-08-03T02:05:47.748Z,13.93
2022-08-03T02:08:17.917Z,13.95
2022-08-03T02:10:46.691Z,13.93
2022-08-03T02:13:17.352Z,13.75
2022-08-03T02:15:47.024Z,13.81
2022-08-03T02:18:22.044Z,13.83
2022-08-03T02:20:52.821Z,13.77
2022-08-03T02:23:21.127Z,13.77
2022-08-03T02:25:57.961Z,13.77
2022-08-03T02:28:32.392Z,13.74
2022-08-03T02:31:06.891Z,13.72
2022-08-03T02:33:41.273Z,13.66
2022-08-03T02:36:14.592Z,13.69
2022-08-03T02:38:44.216Z,13.67
2022-08-03T02:41:22.416Z,13.62
2022-08-03T02:44:05.958Z,13.67
2022-08-03T02:46:42.016Z,13.59
2022-08-03T02:49:49.561Z,13.56
2022-08-03T02:52:02.812Z,13.50
2022-08-03T02:54:32.683Z,13.45
2022-08-03T02:57:02.307Z,13.47
2022-08-03T02:59:32.062Z,13.53
2022-08-03T03:02:03.491Z,13.63
2022-08-03T03:04:33.265Z,13.69
2022-08-03T03:07:01.907Z,13.67
2022-08-03T03:09:41.551Z,13.65
2022-08-03T03:12:13.414Z,13.58
2022-08-03T03:14:48.863Z,13.53
2022-08-03T03:17:20.339Z,13.57
2022-08-03T03:19:49.675Z,13.57
2022-08-03T03:22:20.226Z,13.42
2022-08-03T03:24:50.536Z,13.29
2022-08-03T03:27:18.529Z,13.26
2022-08-03T03:29:47.484Z,13.31
2022-08-03T03:32:15.164Z,13.42
2022-08-03T03:34:45.038Z,13.33
2022-08-03T03:37:19.616Z,13.33
2022-08-03T03:39:57.893Z,13.39
2022-08-03T03:42:26.259Z,13.36
2022-08-03T03:44:54.918Z,13.38
2022-08-03T03:47:32.743Z,13.34
2022-08-03T03:50:04.100Z,13.34
2022-08-03T03:52:32.208Z,13.45
2022-08-03T03:55:01.214Z,13.51
2022-08-03T03:57:30.342Z,13.50
2022-08-03T03:59:57.982Z,13.45
2022-08-03T04:02:26.742Z,13.41
2022-08-03T04:04:55.686Z,13.33
2022-08-03T04:07:26.047Z,13.29
2022-08-03T04:09:56.034Z,13.45
2022-08-03T04:12:28.273Z,13.48
2022-08-03T04:14:57.979Z,13.40
2022-08-03T04:17:32.789Z,13.40
2022-08-03T04:20:01.417Z,13.37
2022-08-03T04:22:34.622Z,13.31
2022-08-03T04:25:15.067Z,13.35
2022-08-03T04:28:07.982Z,13.38
2022-08-03T04:30:38.854Z,13.36
2022-08-03T04:33:07.611Z,13.36
2022-08-03T04:36:01.129Z,13.33
2022-08-03T04:38:27.531Z,13.30
2022-08-03T04:40:56.832Z,13.30
2022-08-03T04:43:25.270Z,13.40
2022-08-03T04:45:55.330Z,13.48
2022-08-03T04:48:27.697Z,13.59
2022-08-03T04:50:54.977Z,13.56
2022-08-03T04:53:22.028Z,13.47
2022-08-03T04:55:52.559Z,13.51
2022-08-03T04:58:22.654Z,13.50
2022-08-03T05:00:49.678Z,13.46
2022-08-03T05:03:24.461Z,13.49
2022-08-03T05:06:09.498Z,13.51
2022-08-03T05:08:46.421Z,13.48
2022-08-03T05:11:23.250Z,13.47
2022-08-03T05:13:51.114Z,13.47
2022-08-03T05:16:19.865Z,13.59
2022-08-03T05:18:47.864Z,13.62
2022-08-03T05:21:16.662Z,13.66
2022-08-03T05:23:43.867Z,13.54
2022-08-03T05:26:11.228Z,13.50
2022-08-03T05:28:50.970Z,13.59
2022-08-03T05:31:23.140Z,13.60
2022-08-03T05:33:50.393Z,14.28
2022-08-03T05:36:18.443Z,15.89
2022-08-03T05:38:45.668Z,17.16
2022-08-03T05:41:22.096Z,18.35
2022-08-03T05:43:52.782Z,19.06
2022-08-03T05:46:20.467Z,19.88
2022-08-03T05:48:48.862Z,20.35
2022-08-03T05:51:21.464Z,20.84
2022-08-03T05:53:49.579Z,21.09
2022-08-03T05:56:17.573Z,21.36
2022-08-03T05:58:46.177Z,21.45
2022-08-03T06:01:15.146Z,21.35
2022-08-03T06:03:42.600Z,21.35
2022-08-03T06:06:10.892Z,21.20
2022-08-03T06:08:42.065Z,21.33
2022-08-03T06:11:09.891Z,21.27
2022-08-03T06:13:39.395Z,21.18
2022-08-03T06:16:06.411Z,21.33
2022-08-03T06:18:37.193Z,21.36
2022-08-03T06:21:15.243Z,21.41
2022-08-03T06:23:54.601Z,21.38
2022-08-03T06:26:27.886Z,21.54
2022-08-03T06:28:57.467Z,21.58
2022-08-03T06:31:33.383Z,22.07
2022-08-03T06:34:34.447Z,22.38
2022-08-03T06:36:58.630Z,22.68
2022-08-03T06:39:30.370Z,22.85
2022-08-03T06:41:58.311Z,22.99
2022-08-03T06:44:26.580Z,23.01
2022-08-03T06:46:55.177Z,23.18
2022-08-03T06:49:27.354Z,23.42
2022-08-03T06:52:04.060Z,23.56
2022-08-03T06:54:50.657Z,23.57
2022-08-03T06:57:18.405Z,23.71
2022-08-03T07:00:09.049Z,23.69
2022-08-03T07:02:37.493Z,23.68
2022-08-03T07:05:08.202Z,23.79
2022-08-03T07:07:37.050Z,23.94
2022-08-03T07:10:08.018Z,23.95
2022-08-03T07:12:35.793Z,23.73
2022-08-03T07:15:05.027Z,23.91
2022-08-03T07:17:33.676Z,23.70
2022-08-03T07:20:01.909Z,23.97
2022-08-03T07:22:30.519Z,23.50
2022-08-03T07:25:03.993Z,23.84
2022-08-03T07:27:33.237Z,24.15
2022-08-03T07:30:02.651Z,24.36
2022-08-03T07:32:30.797Z,24.61
2022-08-03T07:35:01.108Z,24.58
2022-08-03T07:37:36.532Z,24.72
2022-08-03T07:40:05.888Z,24.85
2022-08-03T07:42:33.807Z,25.06
2022-08-03T07:45:00.614Z,24.90
2022-08-03T07:47:35.620Z,25.10
2022-08-03T07:50:04.546Z,25.20
2022-08-03T07:52:36.518Z,25.32
2022-08-03T07:55:04.758Z,25.54
2022-08-03T07:57:37.268Z,25.61
2022-08-03T08:00:07.452Z,25.73
2022-08-03T08:02:35.399Z,25.89
2022-08-03T08:05:05.683Z,25.93
2022-08-03T08:07:35.113Z,25.95
2022-08-03T08:10:02.055Z,26.04
2022-08-03T08:12:28.956Z,26.04
2022-08-03T08:14:55.912Z,26.07
2022-08-03T08:17:23.778Z,26.22
2022-08-03T08:19:58.107Z,26.29
2022-08-03T08:22:30.561Z,26.45
2022-08-03T08:25:01.575Z,26.59
2022-08-03T08:27:28.955Z,26.64
2022-08-03T08:30:19.427Z,26.71
2022-08-03T08:32:48.523Z,26.62
2022-08-03T08:35:16.350Z,26.72
2022-08-03T08:37:43.385Z,26.80
2022-08-03T08:40:34.457Z,26.90
2022-08-03T08:43:10.225Z,26.94
2022-08-03T08:45:38.160Z,26.88
2022-08-03T08:48:08.539Z,27.03
2022-08-03T08:50:38.071Z,27.19
2022-08-03T08:53:11.613Z,27.35
2022-08-03T08:55:58.359Z,27.54
2022-08-03T08:58:32.789Z,27.72
2022-08-03T09:01:00.703Z,27.77
2022-08-03T09:03:30.195Z,27.78
2022-08-03T09:06:07.389Z,27.89
2022-08-03T09:08:36.694Z,27.97
2022-08-03T09:11:06.060Z,27.82
2022-08-03T09:13:39.133Z,27.84
2022-08-03T09:16:15.047Z,28.01
2022-08-03T09:18:47.780Z,28.12
2022-08-03T09:21:37.778Z,28.23
2022-08-03T09:24:10.500Z,28.18
2022-08-03T09:26:52.122Z,28.45
2022-08-03T09:29:33.687Z,28.46
2022-08-03T09:32:02.866Z,28.50
2022-08-03T09:34:30.899Z,28.53
2022-08-03T09:36:58.151Z,28.68
2022-08-03T09:39:41.420Z,28.86
2022-08-03T09:42:11.177Z,28.92
2022-08-03T09:44:45.258Z,29.00
2022-08-03T09:47:14.952Z,29.03
2022-08-03T09:49:58.254Z,29.16
2022-08-03T09:52:38.921Z,29.20
2022-08-03T09:56:05.138Z,29.48
2022-08-03T09:58:10.334Z,29.67
2022-08-03T10:00:53.423Z,29.66
2022-08-03T10:03:20.358Z,29.81
2022-08-03T10:05:48.289Z,29.49
2022-08-03T10:08:18.202Z,29.35
2022-08-03T10:10:47.132Z,29.53
2022-08-03T10:13:17.021Z,29.64
2022-08-03T10:16:22.448Z,29.35
2022-08-03T10:18:35.379Z,29.69
2022-08-03T10:21:08.001Z,29.79
2022-08-03T10:23:38.131Z,30.03
2022-08-03T10:26:13.143Z,29.55
2022-08-03T10:28:49.761Z,29.33
2022-08-03T10:31:28.029Z,29.63
2022-08-03T10:33:58.100Z,29.83
2022-08-03T10:36:36.452Z,29.90
2022-08-03T10:39:04.996Z,30.01
2022-08-03T10:41:46.729Z,30.23
2022-08-03T10:44:19.512Z,30.55
2022-08-03T10:46:48.588Z,30.72
2022-08-03T10:49:33.756Z,30.87
2022-08-03T10:52:13.088Z,30.54
2022-08-03T10:54:52.957Z,29.90
2022-08-03T10:57:49.731Z,30.20
2022-08-03T11:00:19.800Z,30.28
2022-08-03T11:03:05.968Z,30.19
2022-08-03T11:05:36.054Z,30.33
2022-08-03T11:08:28.987Z,30.55
2022-08-03T11:10:58.805Z,30.72
2022-08-03T11:13:30.364Z,30.44
2022-08-03T11:16:04.753Z,30.64
2022-08-03T11:18:35.152Z,30.88
2022-08-03T11:21:03.419Z,30.79
2022-08-03T11:24:02.850Z,30.96
2022-08-03T11:26:31.093Z,30.83
2022-08-03T11:29:27.739Z,30.94
2022-08-03T11:31:56.581Z,31.05
2022-08-03T11:34:25.233Z,31.19
2022-08-03T11:37:26.339Z,31.04
2022-08-03T11:39:55.961Z,31.13
2022-08-03T11:42:42.808Z,31.13
2022-08-03T11:45:10.591Z,31.26
2022-08-03T11:47:50.597Z,31.41
2022-08-03T11:50:21.048Z,31.55
2022-08-03T11:52:50.012Z,31.40
2022-08-03T11:55:19.956Z,31.47
2022-08-03T11:59:01.335Z,31.38
2022-08-03T12:00:37.261Z,31.40
2022-08-03T12:03:13.878Z,31.33
2022-08-03T12:05:51.037Z,31.46
2022-08-03T12:08:31.217Z,31.56
2022-08-03T12:11:00.441Z,31.37
2022-08-03T12:14:45.266Z,30.91
2022-08-03T12:16:23.131Z,31.18
2022-08-03T12:18:57.850Z,31.40
2022-08-03T12:21:26.378Z,31.52
2022-08-03T12:23:57.232Z,31.57
2022-08-03T12:26:28.072Z,30.86
2022-08-03T12:28:56.142Z,30.98
2022-08-03T12:31:23.341Z,30.83
2022-08-03T12:34:03.726Z,30.75
2022-08-03T12:36:33.084Z,30.59
2022-08-03T12:39:04.418Z,30.47
2022-08-03T12:41:34.072Z,30.58
2022-08-03T12:44:02.131Z,30.72
2022-08-03T12:46:33.829Z,30.81
2022-08-03T12:49:07.050Z,30.92
2022-08-03T12:51:37.036Z,30.26
2022-08-03T12:54:05.880Z,30.63
2022-08-03T12:56:33.384Z,30.41
2022-08-03T12:59:01.516Z,30.68
2022-08-03T13:01:55.000Z,30.04
2022-08-03T13:04:33.226Z,29.81
2022-08-03T13:07:02.911Z,30.25
2022-08-03T13:09:41.921Z,29.85
2022-08-03T13:12:11.267Z,30.01
2022-08-03T13:14:40.391Z,29.48
2022-08-03T13:17:09.990Z,29.81
2022-08-03T13:19:46.093Z,29.82
2022-08-03T13:22:14.304Z,30.22
2022-08-03T13:24:45.421Z,30.46
2022-08-03T13:28:01.908Z,29.79
2022-08-03T13:30:05.691Z,29.76
2022-08-03T13:32:34.619Z,29.89
2022-08-03T13:35:05.825Z,30.02
2022-08-03T13:37:33.125Z,30.22
2022-08-03T13:40:04.804Z,30.18
2022-08-03T13:42:34.875Z,30.05
2022-08-03T13:45:05.305Z,30.27
2022-08-03T13:47:32.457Z,30.31
2022-08-03T13:50:03.083Z,30.34
2022-08-03T13:52:35.223Z,30.37
2022-08-03T13:55:04.325Z,30.45
2022-08-03T13:58:03.562Z,30.52
2022-08-03T14:00:27.895Z,30.58
2022-08-03T14:03:13.905Z,30.50
2022-08-03T14:05:42.700Z,30.55
2022-08-03T14:08:11.481Z,30.63
2022-08-03T14:10:41.957Z,30.69
2022-08-03T14:13:12.166Z,30.43
2022-08-03T14:15:39.422Z,30.55
2022-08-03T14:18:12.862Z,30.60
2022-08-03T14:20:49.090Z,30.21
2022-08-03T14:23:20.355Z,29.92
2022-08-03T14:25:51.870Z,29.98
2022-08-03T14:28:31.675Z,30.04
2022-08-03T14:30:59.123Z,30.08
2022-08-03T14:33:26.927Z,30.12
2022-08-03T14:35:55.239Z,30.03
2022-08-03T14:38:25.156Z,29.94
2022-08-03T14:40:54.192Z,29.90
2022-08-03T14:43:21.202Z,29.80
2022-08-03T14:45:52.673Z,29.73
2022-08-03T14:50:33.073Z,29.45
2022-08-03T14:51:11.500Z,29.46
2022-08-03T14:53:46.590Z,29.52
2022-08-03T14:56:14.130Z,29.50
2022-08-03T14:58:43.777Z,29.29
2022-08-03T15:02:03.057Z,29.42
2022-08-03T15:04:11.255Z,29.43
2022-08-03T15:06:38.530Z,29.41
2022-08-03T15:09:23.633Z,29.18
2022-08-03T15:11:53.282Z,29.24
2022-08-03T15:14:32.247Z,29.24
2022-08-03T15:17:01.199Z,29.09
2022-08-03T15:20:03.743Z,29.11
2022-08-03T15:22:19.028Z,28.79
2022-08-03T15:24:58.508Z,28.74
2022-08-03T15:27:26.093Z,28.55
2022-08-03T15:30:05.129Z,28.63
2022-08-03T15:32:36.655Z,28.64
2022-08-03T15:35:04.300Z,28.63
2022-08-03T15:37:31.379Z,28.54
2022-08-03T15:40:02.246Z,28.41
2022-08-03T15:42:30.490Z,28.36
2022-08-03T15:44:57.430Z,28.25
2022-08-03T15:47:27.194Z,28.21
2022-08-03T15:49:57.091Z,28.17
2022-08-03T15:52:24.475Z,27.95
2022-08-03T15:54:51.887Z,27.66
2022-08-03T15:57:24.045Z,27.65
2022-08-03T15:59:54.718Z,27.72
2022-08-03T16:02:25.260Z,27.52
2022-08-03T16:04:52.923Z,27.42
2022-08-03T16:07:20.319Z,27.19
2022-08-03T16:09:47.601Z,27.19
2022-08-03T16:12:16.771Z,27.19
2022-08-03T16:14:54.452Z,27.21
2022-08-03T16:17:22.933Z,27.19
2022-08-03T16:19:51.073Z,27.13
2022-08-03T16:22:22.998Z,27.02
2022-08-03T16:24:51.524Z,26.87
2022-08-03T16:27:56.782Z,26.65
2022-08-03T16:30:12.211Z,26.62
2022-08-03T16:32:41.655Z,26.59
2022-08-03T16:35:19.423Z,26.52
2022-08-03T16:37:56.122Z,26.50
2022-08-03T16:40:25.685Z,26.41
2022-08-03T16:42:52.531Z,26.38
2022-08-03T16:45:24.086Z,26.31
2022-08-03T16:48:01.426Z,26.28
2022-08-03T16:50:35.409Z,26.09
2022-08-03T16:53:05.073Z,26.04
2022-08-03T16:55:48.937Z,25.86
2022-08-03T16:58:24.331Z,25.72
2022-08-03T17:01:22.603Z,25.64
2022-08-03T17:04:01.918Z,25.55
2022-08-03T17:06:35.945Z,25.50
2022-08-03T17:09:09.119Z,25.45
2022-08-03T17:11:37.738Z,25.40
2022-08-03T17:14:09.607Z,25.23
2022-08-03T17:16:40.646Z,25.20
2022-08-03T17:19:23.612Z,25.06
2022-08-03T17:22:01.549Z,24.98
2022-08-03T17:24:41.201Z,24.96
2022-08-03T17:28:41.728Z,24.83
2022-08-03T17:30:05.225Z,24.79
2022-08-03T17:32:42.300Z,24.74
2022-08-03T17:35:09.806Z,24.65
2022-08-03T17:37:57.845Z,24.69
2022-08-03T17:40:31.095Z,24.75
2022-08-03T17:44:13.645Z,24.68
2022-08-03T17:45:54.725Z,24.53
2022-08-03T17:48:26.055Z,24.47
2022-08-03T17:51:06.631Z,24.16
2022-08-03T17:53:38.997Z,23.99
2022-08-03T17:56:40.380Z,23.71
2022-08-03T17:59:15.439Z,23.65
2022-08-03T18:02:00.651Z,23.28
2022-08-03T18:04:34.832Z,23.28
2022-08-03T18:07:11.278Z,23.24
2022-08-03T18:10:03.559Z,23.14
2022-08-03T18:12:43.800Z,22.97
2022-08-03T18:15:22.748Z,23.00
2022-08-03T18:17:55.520Z,22.40
2022-08-03T18:20:40.921Z,22.39
2022-08-03T18:23:11.641Z,21.92
2022-08-03T18:25:58.027Z,22.06
2022-08-03T18:28:28.922Z,22.02
2022-08-03T18:30:57.724Z,21.88
2022-08-03T18:34:19.661Z,21.64
2022-08-03T18:36:29.648Z,21.57
2022-08-03T18:39:02.341Z,21.64
2022-08-03T18:41:32.242Z,21.25
2022-08-03T18:44:06.882Z,20.92
2022-08-03T18:46:47.978Z,21.32
2022-08-03T18:49:34.827Z,21.30
2022-08-03T18:52:12.422Z,21.26
2022-08-03T18:55:02.298Z,21.13
2022-08-03T18:57:39.364Z,20.83
2022-08-03T19:00:13.991Z,20.72
2022-08-03T19:02:48.672Z,20.67
2022-08-03T19:05:18.988Z,20.72
2022-08-03T19:07:58.190Z,20.59
2022-08-03T19:10:31.449Z,20.48
2022-08-03T19:13:11.368Z,20.38
2022-08-03T19:15:51.232Z,20.39
2022-08-03T19:18:21.318Z,20.25
2022-08-03T19:20:53.218Z,20.34
2022-08-03T19:23:33.879Z,20.62
2022-08-03T19:26:03.262Z,20.44
2022-08-03T19:28:34.111Z,20.59
2022-08-03T19:31:02.590Z,20.62
2022-08-03T19:33:55.930Z,20.63
2022-08-03T19:36:27.339Z,20.61
2022-08-03T19:39:01.498Z,20.55
2022-08-03T19:41:42.239Z,20.42
2022-08-03T19:44:12.219Z,20.24
2022-08-03T19:46:52.366Z,19.91
2022-08-03T19:50:05.127Z,19.93
2022-08-03T19:52:33.206Z,19.87
2022-08-03T19:55:07.500Z,20.05
2022-08-03T19:57:38.682Z,19.79
2022-08-03T20:00:10.151Z,19.66
2022-08-03T20:02:38.054Z,19.38
2022-08-03T20:05:14.946Z,19.42
2022-08-03T20:07:48.182Z,19.42
2022-08-03T20:10:19.644Z,19.46
2022-08-03T20:12:49.234Z,19.33
2022-08-03T20:15:31.113Z,19.22
2022-08-03T20:17:59.807Z,19.13
2022-08-03T20:20:30.936Z,19.10
2022-08-03T20:23:01.045Z,18.97
2022-08-03T20:25:38.151Z,18.95
2022-08-03T20:28:14.906Z,18.92
2022-08-03T20:30:44.548Z,18.82
2022-08-03T20:33:18.656Z,19.01
2022-08-03T20:35:49.625Z,19.08
2022-08-03T20:38:18.403Z,19.06
2022-08-03T20:40:50.355Z,18.94
2022-08-03T20:46:29.017Z,19.01
2022-08-03T20:48:54.649Z,19.01
2022-08-03T20:51:48.983Z,19.06
2022-08-03T20:54:23.115Z,18.95
2022-08-03T20:57:10.153Z,18.77
2022-08-03T20:59:50.520Z,18.71
2022-08-03T21:02:30.366Z,18.49
2022-08-03T21:05:03.749Z,18.54
2022-08-03T21:08:03.779Z,18.73
2022-08-03T21:10:38.474Z,18.89
2022-08-03T21:13:12.862Z,18.99
2022-08-03T21:16:12.563Z,19.10
2022-08-03T21:18:46.290Z,18.93
2022-08-03T21:21:16.538Z,18.74
2022-08-03T21:23:48.591Z,18.71
2022-08-03T21:26:18.513Z,18.72
2022-08-03T21:28:49.107Z,18.71
2022-08-03T21:31:24.501Z,18.62
2022-08-03T21:33:56.837Z,18.71
2022-08-03T21:36:25.862Z,18.68
2022-08-03T21:39:00.573Z,18.75
2022-08-03T21:41:30.711Z,18.68
2022-08-03T21:43:59.827Z,18.61
2022-08-03T21:46:29.534Z,18.57
2022-08-03T21:50:04.247Z,18.42
2022-08-03T21:51:52.238Z,18.19
2022-08-03T21:54:20.958Z,18.16
2022-08-03T21:56:51.180Z,18.22
2022-08-03T21:59:23.379Z,18.21
2022-08-03T22:01:55.521Z,18.30
2022-08-03T22:04:53.241Z,18.36
2022-08-03T22:07:18.066Z,18.23
2022-08-03T22:09:51.451Z,18.04
2022-08-03T22:12:21.012Z,17.96
2022-08-03T22:15:00.481Z,17.79
2022-08-03T22:17:55.384Z,17.82
2022-08-03T22:20:22.311Z,17.77
2022-08-03T22:22:56.111Z,17.75
2022-08-03T22:25:28.015Z,17.81
2022-08-03T22:27:55.672Z,17.79
2022-08-03T22:30:25.457Z,17.72
2022-08-03T22:32:56.801Z,17.82
2022-08-03T22:35:26.994Z,17.77
2022-08-03T22:37:54.928Z,17.77
2022-08-03T22:40:23.235Z,17.73
2022-08-03T22:42:54.576Z,17.76
2022-08-03T22:46:07.275Z,17.77
2022-08-03T22:48:14.552Z,17.79
2022-08-03T22:50:43.780Z,17.73
2022-08-03T22:53:17.198Z,17.81
2022-08-03T22:55:44.706Z,17.84
2022-08-03T22:58:16.197Z,17.79
2022-08-03T23:00:47.419Z,17.78
2022-08-03T23:04:00.446Z,17.76
2022-08-03T23:06:21.188Z,17.68
2022-08-03T23:08:50.322Z,17.61
2022-08-03T23:11:19.294Z,17.49
2022-08-03T23:13:53.142Z,17.53
2022-08-03T23:16:28.857Z,17.51
2022-08-03T23:19:16.472Z,17.49
2022-08-03T23:21:53.805Z,17.43
2022-08-03T23:24:30.895Z,17.37
2022-08-03T23:26:58.521Z,17.35
2022-08-03T23:29:30.901Z,17.30
2022-08-03T23:32:06.143Z,17.30
2022-08-03T23:34:39.814Z,17.25
2022-08-03T23:37:06.770Z,17.25
2022-08-03T23:39:35.517Z,17.14
2022-08-03T23:42:06.298Z,17.03
2022-08-03T23:44:38.872Z,16.99
2022-08-03T23:47:05.746Z,16.99
2022-08-03T23:49:33.292Z,17.02
2022-08-03T23:52:08.420Z,17.03
2022-08-03T23:54:47.001Z,17.10
2022-08-03T23:57:25.465Z,17.10
